createdAt,value
2019-05-01T00:03:06.971Z,10.60
2019-05-01T00:06:11.741Z,10.50
2019-05-01T00:09:16.793Z,10.60
2019-05-01T00:12:21.289Z,10.60
2019-05-01T00:15:28.642Z,10.50
2019-05-01T00:18:32.808Z,9.90
2019-05-01T00:21:37.117Z,9.80
2019-05-01T00:24:41.381Z,9.40
2019-05-01T00:27:45.614Z,8.90
2019-05-01T00:30:49.827Z,9.10
2019-05-01T00:33:54.052Z,9.30
2019-05-01T00:36:58.271Z,9.50
2019-05-01T00:40:02.761Z,9.70
2019-05-01T00:43:07.028Z,9.60
2019-05-01T00:46:11.310Z,9.50
2019-05-01T00:49:15.617Z,9.50
2019-05-01T00:52:19.989Z,9.50
2019-05-01T00:55:58.396Z,9.50
2019-05-01T00:59:10.790Z,9.30
2019-05-01T01:02:35.451Z,9.10
2019-05-01T01:05:39.799Z,9.20
2019-05-01T01:08:44.023Z,9.10
2019-05-01T01:11:48.608Z,9.10
2019-05-01T01:14:52.795Z,8.90
2019-05-01T01:17:57.133Z,9.10
2019-05-01T01:21:01.402Z,9.20
2019-05-01T01:24:05.866Z,9.20
2019-05-01T01:27:10.134Z,9.10
2019-05-01T01:30:14.944Z,9.00
2019-05-01T01:33:19.432Z,9.00
2019-05-01T01:36:23.731Z,9.00
2019-05-01T01:39:27.904Z,9.00
2019-05-01T01:42:32.498Z,8.60
2019-05-01T01:45:45.283Z,8.80
2019-05-01T01:48:48.657Z,8.80
2019-05-01T01:51:52.958Z,8.80
2019-05-01T01:54:57.366Z,8.70
2019-05-01T01:58:01.566Z,8.40
2019-05-01T02:01:28.009Z,8.20
2019-05-01T02:04:46.070Z,8.40
2019-05-01T02:07:50.373Z,8.60
2019-05-01T02:10:54.766Z,8.30
2019-05-01T02:13:59.153Z,8.20
2019-05-01T02:17:03.422Z,8.00
2019-05-01T02:20:08.659Z,8.20
2019-05-01T02:23:12.874Z,8.50
2019-05-01T02:26:19.718Z,8.50
2019-05-01T02:29:30.182Z,8.60
2019-05-01T02:32:35.443Z,8.60
2019-05-01T02:35:39.944Z,8.40
2019-05-01T02:38:47.146Z,8.50
2019-05-01T02:41:52.963Z,8.50
2019-05-01T02:44:59.266Z,8.50
2019-05-01T02:48:04.671Z,8.50
2019-05-01T02:51:10.590Z,8.40
2019-05-01T02:54:17.637Z,8.30
2019-05-01T02:57:24.623Z,8.30
2019-05-01T03:00:29.395Z,8.20
2019-05-01T03:03:33.718Z,8.00
2019-05-01T03:06:38.771Z,8.10
2019-05-01T03:09:43.609Z,8.10
2019-05-01T03:12:50.125Z,8.00
2019-05-01T03:15:54.849Z,8.20
2019-05-01T03:19:01.397Z,8.30
2019-05-01T03:22:12.009Z,8.40
2019-05-01T03:25:16.621Z,8.20
2019-05-01T03:28:21.217Z,8.30
2019-05-01T03:31:25.481Z,8.10
2019-05-01T03:34:29.722Z,8.20
2019-05-01T03:37:34.295Z,8.20
2019-05-01T03:40:38.743Z,8.10
2019-05-01T03:43:43.018Z,8.10
2019-05-01T03:46:48.116Z,8.00
2019-05-01T03:49:52.483Z,7.90
2019-05-01T03:52:56.742Z,8.00
2019-05-01T03:56:01.613Z,7.90
2019-05-01T03:59:06.027Z,8.00
2019-05-01T04:02:33.026Z,8.00
2019-05-01T04:05:24.731Z,8.00
2019-05-01T04:08:29.246Z,8.10
2019-05-01T04:11:33.678Z,8.10
2019-05-01T04:14:39.393Z,8.10
2019-05-01T04:18:04.653Z,8.10
2019-05-01T04:21:09.984Z,7.90
2019-05-01T04:24:14.499Z,7.20
2019-05-01T04:27:26.958Z,6.70
2019-05-01T04:30:50.711Z,6.40
2019-05-01T04:33:56.920Z,6.40
2019-05-01T04:37:03.389Z,6.70
2019-05-01T04:40:07.836Z,7.00
2019-05-01T04:43:14.935Z,7.20
2019-05-01T04:46:19.577Z,7.20
2019-05-01T04:49:23.888Z,7.30
2019-05-01T04:52:28.176Z,7.20
2019-05-01T04:55:33.138Z,7.30
2019-05-01T04:58:56.397Z,7.50
2019-05-01T05:02:03.017Z,7.70
2019-05-01T05:05:08.043Z,7.60
2019-05-01T05:08:12.506Z,7.70
2019-05-01T05:11:22.595Z,7.70
2019-05-01T05:14:31.507Z,7.70
2019-05-01T05:17:36.387Z,7.70
2019-05-01T05:20:41.219Z,7.70
2019-05-01T05:23:45.676Z,7.80
2019-05-01T05:26:51.008Z,7.90
2019-05-01T05:29:57.405Z,7.90
2019-05-01T05:33:17.196Z,8.10
2019-05-01T05:36:12.019Z,8.20
2019-05-01T05:39:27.378Z,8.50
2019-05-01T05:42:31.789Z,8.60
2019-05-01T05:45:36.117Z,8.60
2019-05-01T05:48:40.775Z,8.50
2019-05-01T05:52:15.866Z,8.60
2019-05-01T05:55:47.544Z,8.80
2019-05-01T05:58:57.641Z,9.20
2019-05-01T06:02:22.293Z,9.40
2019-05-01T06:05:48.928Z,9.40
2019-05-01T06:08:56.648Z,9.50
2019-05-01T06:12:14.267Z,9.50
2019-05-01T06:15:41.193Z,9.60
2019-05-01T06:18:53.864Z,9.40
2019-05-01T06:22:11.618Z,9.50
2019-05-01T06:25:24.828Z,9.60
2019-05-01T06:28:29.660Z,9.70
2019-05-01T06:31:35.497Z,9.70
2019-05-01T06:34:40.068Z,9.60
2019-05-01T06:38:12.824Z,9.70
2019-05-01T06:41:19.150Z,9.60
2019-05-01T06:44:44.218Z,9.70
2019-05-01T06:47:52.635Z,10.00
2019-05-01T06:51:19.114Z,9.90
2019-05-01T06:54:26.081Z,10.00
2019-05-01T06:57:31.142Z,10.10
2019-05-01T07:00:39.100Z,10.30
2019-05-01T07:03:46.934Z,10.30
2019-05-01T07:06:49.804Z,10.20
2019-05-01T07:09:56.440Z,10.40
2019-05-01T07:13:04.980Z,10.20
2019-05-01T07:16:08.950Z,10.30
2019-05-01T07:19:13.794Z,10.50
2019-05-01T07:22:18.837Z,10.40
2019-05-01T07:25:23.086Z,10.40
2019-05-01T07:28:34.044Z,10.60
2019-05-01T07:31:35.112Z,10.70
2019-05-01T07:34:39.799Z,10.80
2019-05-01T07:37:44.465Z,10.70
2019-05-01T07:40:49.358Z,10.70
2019-05-01T07:44:13.270Z,10.90
2019-05-01T07:47:39.645Z,11.00
2019-05-01T07:50:43.910Z,10.90
2019-05-01T07:53:49.032Z,10.90
2019-05-01T07:56:53.948Z,11.00
2019-05-01T08:00:03.568Z,11.10
2019-05-01T08:03:07.289Z,11.10
2019-05-01T08:06:10.895Z,10.90
2019-05-01T08:09:16.279Z,11.10
2019-05-01T08:12:24.065Z,11.00
2019-05-01T08:15:30.388Z,10.90
2019-05-01T08:18:50.290Z,11.00
2019-05-01T08:22:01.703Z,11.10
2019-05-01T08:25:07.409Z,11.10
2019-05-01T08:28:23.006Z,11.10
2019-05-01T08:31:33.688Z,11.10
2019-05-01T08:34:48.503Z,11.20
2019-05-01T08:37:44.279Z,11.20
2019-05-01T08:40:50.816Z,11.30
2019-05-01T08:43:55.955Z,11.30
2019-05-01T08:47:25.883Z,11.30
2019-05-01T08:50:29.626Z,11.40
2019-05-01T08:53:33.922Z,11.30
2019-05-01T08:56:38.196Z,11.40
2019-05-01T08:59:42.548Z,11.30
2019-05-01T09:02:46.905Z,11.40
2019-05-01T09:05:52.213Z,11.30
2019-05-01T09:08:57.438Z,11.40
2019-05-01T09:12:01.796Z,11.50
2019-05-01T09:15:07.158Z,11.40
2019-05-01T09:18:12.783Z,11.50
2019-05-01T09:21:17.183Z,11.50
2019-05-01T09:24:23.133Z,11.60
2019-05-01T09:27:46.812Z,11.60
2019-05-01T09:31:01.585Z,11.50
2019-05-01T09:34:01.036Z,11.60
2019-05-01T09:37:05.887Z,11.60
2019-05-01T09:40:10.567Z,11.50
2019-05-01T09:43:14.785Z,11.50
2019-05-01T09:46:19.123Z,11.70
2019-05-01T09:49:23.406Z,11.90
2019-05-01T09:52:49.862Z,12.00
2019-05-01T09:56:07.781Z,11.90
2019-05-01T09:59:12.685Z,11.80
2019-05-01T10:02:16.751Z,11.70
2019-05-01T10:05:28.705Z,11.70
2019-05-01T10:08:27.185Z,11.90
2019-05-01T10:11:31.609Z,11.90
2019-05-01T10:14:36.358Z,12.10
2019-05-01T10:17:41.827Z,12.20
2019-05-01T10:20:46.123Z,12.10
2019-05-01T10:23:51.671Z,12.10
2019-05-01T10:27:00.202Z,12.30
2019-05-01T10:31:00.741Z,12.40
2019-05-01T10:34:15.753Z,12.50
2019-05-01T10:37:20.256Z,12.60
2019-05-01T10:40:27.054Z,12.70
2019-05-01T10:43:30.604Z,12.80
2019-05-01T10:46:34.870Z,12.90
2019-05-01T10:49:39.107Z,12.90
2019-05-01T10:52:43.386Z,13.00
2019-05-01T10:55:47.718Z,13.20
2019-05-01T10:58:52.135Z,13.10
2019-05-01T11:01:59.055Z,13.20
2019-05-01T11:05:03.303Z,13.40
2019-05-01T11:08:07.645Z,13.30
2019-05-01T11:11:11.959Z,13.20
2019-05-01T11:14:16.377Z,13.30
2019-05-01T11:17:20.766Z,13.30
2019-05-01T11:20:25.000Z,13.20
2019-05-01T11:23:29.383Z,13.30
2019-05-01T11:29:38.516Z,13.20
2019-05-01T11:32:55.775Z,13.30
2019-05-01T11:36:19.095Z,13.40
2019-05-01T11:39:35.834Z,13.50
2019-05-01T11:42:39.252Z,13.40
2019-05-01T11:45:43.548Z,13.60
2019-05-01T11:48:48.044Z,13.60
2019-05-01T11:51:52.248Z,13.60
2019-05-01T11:54:56.513Z,13.50
2019-05-01T11:58:00.780Z,13.60
2019-05-01T12:01:06.141Z,13.80
2019-05-01T12:04:10.366Z,14.10
2019-05-01T12:07:14.636Z,14.00
2019-05-01T12:10:19.995Z,14.10
2019-05-01T12:13:24.290Z,14.10
2019-05-01T12:16:46.135Z,14.10
2019-05-01T12:19:50.576Z,14.20
2019-05-01T12:22:54.873Z,14.20
2019-05-01T12:26:00.667Z,14.20
2019-05-01T12:29:04.887Z,14.20
2019-05-01T12:32:09.209Z,14.10
2019-05-01T12:35:13.394Z,14.00
2019-05-01T12:38:17.690Z,14.10
2019-05-01T12:41:53.236Z,14.10
2019-05-01T12:44:57.634Z,14.00
2019-05-01T12:48:04.775Z,14.20
2019-05-01T12:51:09.578Z,14.10
2019-05-01T12:54:24.038Z,14.20
2019-05-01T12:57:28.358Z,14.50
2019-05-01T13:00:41.728Z,14.40
2019-05-01T13:03:46.078Z,14.40
2019-05-01T13:06:53.279Z,14.40
2019-05-01T13:09:57.537Z,14.40
2019-05-01T13:13:01.731Z,14.70
2019-05-01T13:16:06.202Z,14.90
2019-05-01T13:19:10.497Z,14.90
2019-05-01T13:22:14.800Z,14.90
2019-05-01T13:25:19.069Z,14.90
2019-05-01T13:28:40.032Z,15.20
2019-05-01T13:31:48.466Z,15.30
2019-05-01T13:34:52.769Z,15.20
2019-05-01T13:37:57.048Z,14.90
2019-05-01T13:41:01.310Z,15.00
2019-05-01T13:44:05.601Z,14.90
2019-05-01T13:47:09.873Z,14.80
2019-05-01T13:50:14.537Z,14.70
2019-05-01T13:53:18.876Z,14.70
2019-05-01T13:56:23.114Z,14.70
2019-05-01T13:59:27.343Z,14.70
2019-05-01T14:02:31.642Z,14.70
2019-05-01T14:05:35.875Z,14.80
2019-05-01T14:08:40.222Z,14.80
2019-05-01T14:11:44.645Z,15.20
2019-05-01T14:14:48.941Z,15.10
2019-05-01T14:17:53.202Z,15.40
2019-05-01T14:21:19.504Z,15.20
2019-05-01T14:24:36.903Z,15.50
2019-05-01T14:27:41.401Z,15.40
2019-05-01T14:30:45.816Z,15.30
2019-05-01T14:33:50.010Z,15.40
2019-05-01T14:36:54.321Z,15.50
2019-05-01T14:39:58.643Z,15.50
2019-05-01T14:43:02.954Z,15.40
2019-05-01T14:46:07.260Z,15.30
2019-05-01T14:49:11.599Z,15.30
2019-05-01T14:52:15.993Z,15.20
2019-05-01T14:55:20.627Z,15.20
2019-05-01T14:58:25.098Z,15.50
2019-05-01T15:01:29.359Z,15.40
2019-05-01T15:04:34.229Z,15.70
2019-05-01T15:07:43.616Z,15.80
2019-05-01T15:10:44.502Z,15.70
2019-05-01T15:14:03.638Z,15.90
2019-05-01T15:17:13.458Z,16.00
2019-05-01T15:20:17.902Z,16.10
2019-05-01T15:23:22.150Z,15.80
2019-05-01T15:26:26.500Z,15.60
2019-05-01T15:29:30.929Z,15.60
2019-05-01T15:32:35.179Z,15.60
2019-05-01T15:35:39.499Z,15.70
2019-05-01T15:38:43.777Z,15.70
2019-05-01T15:41:56.085Z,15.80
2019-05-01T15:45:00.489Z,15.80
2019-05-01T15:48:04.881Z,15.90
2019-05-01T15:51:09.227Z,15.90
2019-05-01T15:54:13.458Z,15.80
2019-05-01T15:58:21.907Z,15.80
2019-05-01T16:01:26.238Z,15.70
2019-05-01T16:04:30.659Z,15.60
2019-05-01T16:07:34.939Z,15.60
2019-05-01T16:10:47.010Z,15.60
2019-05-01T16:13:51.316Z,15.70
2019-05-01T16:16:55.725Z,15.60
2019-05-01T16:20:00.017Z,15.50
2019-05-01T16:23:04.490Z,15.40
2019-05-01T16:26:09.787Z,15.40
2019-05-01T16:29:14.292Z,15.30
2019-05-01T16:32:18.631Z,15.30
2019-05-01T16:35:23.336Z,15.40
2019-05-01T16:38:48.866Z,15.30
2019-05-01T16:41:53.401Z,15.20
2019-05-01T16:44:57.691Z,15.30
2019-05-01T16:48:02.090Z,15.30
2019-05-01T16:51:06.475Z,15.30
2019-05-01T16:54:10.894Z,15.20
2019-05-01T16:57:15.562Z,15.10
2019-05-01T17:00:23.675Z,15.20
2019-05-01T17:03:47.258Z,15.10
2019-05-01T17:07:15.868Z,15.10
2019-05-01T17:10:25.225Z,15.20
2019-05-01T17:13:31.687Z,15.20
2019-05-01T17:16:36.072Z,15.10
2019-05-01T17:19:40.458Z,15.10
2019-05-01T17:22:46.242Z,15.00
2019-05-01T17:25:51.134Z,15.00
2019-05-01T17:28:55.638Z,15.00
2019-05-01T17:32:00.242Z,15.00
2019-05-01T17:35:06.692Z,14.90
2019-05-01T17:38:10.982Z,14.80
2019-05-01T17:41:15.274Z,14.70
2019-05-01T17:44:20.104Z,14.70
2019-05-01T17:47:27.013Z,14.60
2019-05-01T17:50:31.447Z,14.50
2019-05-01T17:53:35.737Z,14.50
2019-05-01T17:56:40.111Z,14.50
2019-05-01T17:59:46.026Z,14.50
2019-05-01T18:02:58.232Z,14.40
2019-05-01T18:06:23.835Z,14.40
2019-05-01T18:09:28.215Z,14.40
2019-05-01T18:12:32.753Z,14.20
2019-05-01T18:15:37.129Z,14.10
2019-05-01T18:18:41.483Z,14.00
2019-05-01T18:21:51.781Z,13.80
2019-05-01T18:25:17.911Z,13.80
2019-05-01T18:28:34.379Z,13.70
2019-05-01T18:31:38.719Z,13.60
2019-05-01T18:34:43.365Z,13.60
2019-05-01T18:37:55.635Z,13.50
2019-05-01T18:41:06.267Z,13.40
2019-05-01T18:44:11.429Z,13.30
2019-05-01T18:47:16.093Z,13.20
2019-05-01T18:50:20.524Z,13.10
2019-05-01T18:53:24.964Z,12.80
2019-05-01T18:56:29.422Z,12.70
2019-05-01T18:59:33.875Z,12.70
2019-05-01T19:02:39.013Z,12.60
2019-05-01T19:05:47.008Z,12.70
2019-05-01T19:08:50.018Z,12.60
2019-05-01T19:11:54.724Z,12.60
2019-05-01T19:15:00.295Z,12.70
2019-05-01T19:18:05.574Z,12.50
2019-05-01T19:21:10.322Z,12.30
2019-05-01T19:24:14.951Z,12.20
2019-05-01T19:27:20.856Z,12.10
2019-05-01T19:30:25.397Z,12.10
2019-05-01T19:33:29.751Z,12.20
2019-05-01T19:36:34.170Z,12.10
2019-05-01T19:39:43.841Z,11.90
2019-05-01T19:42:44.796Z,11.70
2019-05-01T19:45:49.019Z,11.60
2019-05-01T19:48:53.404Z,11.60
2019-05-01T19:52:00.597Z,11.40
2019-05-01T19:55:06.437Z,11.50
2019-05-01T19:58:10.419Z,11.40
2019-05-01T20:01:14.775Z,11.30
2019-05-01T20:04:19.041Z,11.40
2019-05-01T20:07:23.531Z,11.30
2019-05-01T20:10:27.961Z,11.20
2019-05-01T20:13:32.257Z,11.40
2019-05-01T20:16:36.597Z,11.40
2019-05-01T20:19:40.940Z,11.40
2019-05-01T20:22:48.088Z,11.30
2019-05-01T20:25:55.815Z,11.40
2019-05-01T20:29:00.262Z,11.50
2019-05-01T20:32:03.548Z,11.50
2019-05-01T20:35:08.008Z,11.60
2019-05-01T20:38:15.226Z,11.70
2019-05-01T20:41:19.512Z,11.70
2019-05-01T20:44:25.842Z,11.60
2019-05-01T20:47:35.216Z,11.30
2019-05-01T20:50:35.871Z,11.10
2019-05-01T20:53:40.221Z,11.10
2019-05-01T20:56:53.319Z,11.10
2019-05-01T20:59:57.671Z,11.00
2019-05-01T21:03:02.080Z,11.30
2019-05-01T21:06:28.001Z,11.30
2019-05-01T21:09:46.685Z,11.40
2019-05-01T21:12:41.042Z,11.50
2019-05-01T21:15:47.244Z,11.40
2019-05-01T21:18:51.484Z,11.40
2019-05-01T21:21:55.741Z,11.50
2019-05-01T21:24:59.969Z,11.50
2019-05-01T21:28:04.417Z,11.40
2019-05-01T21:31:08.700Z,11.40
2019-05-01T21:34:14.525Z,11.30
2019-05-01T21:37:19.105Z,11.30
2019-05-01T21:40:23.427Z,11.30
2019-05-01T21:43:27.847Z,11.20
2019-05-01T21:46:34.084Z,11.10
2019-05-01T21:49:38.340Z,11.20
2019-05-01T21:52:43.736Z,11.10
2019-05-01T21:55:48.119Z,11.10
2019-05-01T21:58:52.439Z,11.00
2019-05-01T22:01:56.759Z,11.00
2019-05-01T22:05:03.847Z,10.90
2019-05-01T22:08:07.171Z,10.80
2019-05-01T22:11:11.614Z,10.80
2019-05-01T22:14:31.071Z,10.80
2019-05-01T22:17:54.911Z,10.70
2019-05-01T22:21:09.682Z,10.60
2019-05-01T22:24:27.828Z,10.60
2019-05-01T22:27:36.900Z,10.40
2019-05-01T22:31:06.253Z,10.40
2019-05-01T22:34:29.622Z,10.40
2019-05-01T22:37:37.050Z,10.30
2019-05-01T22:41:05.978Z,10.40
2019-05-01T22:44:01.406Z,10.30
2019-05-01T22:47:05.713Z,10.40
2019-05-01T22:50:11.975Z,10.20
2019-05-01T22:53:16.256Z,10.30
2019-05-01T22:56:20.658Z,10.20
2019-05-01T22:59:24.948Z,10.20
2019-05-01T23:02:35.892Z,10.10
2019-05-01T23:05:40.277Z,9.90
2019-05-01T23:08:47.608Z,9.90
2019-05-01T23:11:51.921Z,9.90
2019-05-01T23:14:56.410Z,9.80
2019-05-01T23:18:00.849Z,9.80
2019-05-01T23:21:05.326Z,9.90
2019-05-01T23:24:09.678Z,9.90
2019-05-01T23:27:14.013Z,9.90
2019-05-01T23:30:21.033Z,10.00
2019-05-01T23:33:25.289Z,9.90
2019-05-01T23:36:29.648Z,9.90
2019-05-01T23:39:39.683Z,9.80
2019-05-01T23:42:43.340Z,9.70
2019-05-01T23:45:45.855Z,9.50
2019-05-01T23:48:50.078Z,9.40
2019-05-01T23:51:54.390Z,8.90
2019-05-01T23:54:58.666Z,8.80
2019-05-01T23:58:02.933Z,8.90
